Time;durP1;ratioP1;P1;durP2;ratioP2;P2;SDS_P1;SDS_P2;PMS_P1;PMS_P2;Temp;Humidity;BMP_temperature;BMP_pressure;BME280_temperature;BME280_humidity;BME280_pressure;Samples;Min_cycle;Max_cycle;Signal;HPM_P1;HPM_P2
2023/05/24 00:03:03;;;;;;;0.00;0.00;;;;;;;16.14;92.09;102408.97;10457316;28;20049;-79
2023/05/24 00:08:05;;;;;;;2.00;1.00;;;;;;;17.03;87.64;102412.06;10444260;28;20504;-79
2023/05/24 00:13:07;;;;;;;0.47;0.38;;;;;;;16.75;87.10;102413.13;10457433;28;20041;-79
2023/05/24 00:18:08;;;;;;;0.00;0.00;;;;;;;16.34;87.06;102403.44;10446370;28;20041;-78
2023/05/24 00:23:10;;;;;;;0.00;0.00;;;;;;;16.45;88.62;102396.78;10448293;28;20041;-79
2023/05/24 00:28:11;;;;;;;0.00;0.00;;;;;;;16.59;87.90;102383.22;10448571;28;20075;-78
2023/05/24 00:33:13;;;;;;;0.00;0.00;;;;;;;16.84;85.38;102386.44;10462822;28;20040;-79
2023/05/24 00:38:15;;;;;;;0.90;0.28;;;;;;;16.24;87.39;102381.47;10440898;28;20067;-79
2023/05/24 00:43:18;;;;;;;2.13;0.35;;;;;;;16.66;81.67;102379.94;10447337;28;20033;-79
2023/05/24 00:48:21;;;;;;;0.10;0.10;;;;;;;16.41;84.35;102374.13;10445286;28;20410;-79
2023/05/24 00:53:23;;;;;;;1.02;0.20;;;;;;;16.88;85.24;102359.63;10446106;28;20112;-79
2023/05/24 00:58:29;;;;;;;0.00;0.00;;;;;;;17.48;82.71;102352.25;10447067;28;20454;-79
2023/05/24 01:03:32;;;;;;;0.08;0.08;;;;;;;17.29;85.19;102350.16;10446777;28;20496;-79
2023/05/24 01:08:37;;;;;;;0.00;0.00;;;;;;;16.88;82.43;102355.31;10455750;28;20496;-79
2023/05/24 01:13:57;;;;;;;0.57;0.38;;;;;;;16.42;86.18;102360.25;10457913;28;20037;-79
2023/05/24 01:19:04;;;;;;;0.00;0.00;;;;;;;16.47;83.46;102363.88;10442854;28;21051;-79
2023/05/24 01:24:31;;;;;;;0.00;0.00;;;;;;;16.38;84.84;102367.97;10450852;28;20492;-79
2023/05/24 01:29:34;;;;;;;0.00;0.00;;;;;;;16.57;84.66;102371.91;10446357;28;20448;-79
2023/05/24 01:34:36;;;;;;;0.28;0.10;;;;;;;16.14;84.01;102367.38;10453198;28;20454;-79
2023/05/24 01:39:38;;;;;;;0.00;0.00;;;;;;;15.33;86.46;102365.94;10444184;28;20060;-79
2023/05/24 01:45:00;;;;;;;0.00;0.00;;;;;;;15.95;84.44;102368.59;10454064;28;20718;-79
2023/05/24 01:50:19;;;;;;;0.00;0.00;;;;;;;15.84;84.55;102362.25;10445299;28;20516;-79
2023/05/24 01:55:21;;;;;;;0.00;0.00;;;;;;;15.82;87.68;102362.13;10446084;28;20444;-79
2023/05/24 02:00:24;;;;;;;0.00;0.00;;;;;;;15.74;89.64;102360.19;10462706;28;20072;-79
2023/05/24 02:05:27;;;;;;;2.53;0.30;;;;;;;16.25;89.18;102361.59;10451524;28;20570;-79
2023/05/24 02:10:29;;;;;;;0.00;0.00;;;;;;;16.17;89.07;102354.47;10442196;28;20053;-79
2023/05/24 02:15:31;;;;;;;0.00;0.00;;;;;;;15.74;90.53;102353.28;10460267;28;20041;-79
2023/05/24 02:20:35;;;;;;;0.10;0.10;;;;;;;15.83;88.14;102345.75;10449772;28;20048;-79
2023/05/24 02:25:37;;;;;;;0.00;0.00;;;;;;;16.08;88.64;102354.22;10440634;28;20053;-79
2023/05/24 02:30:43;;;;;;;2.75;0.10;;;;;;;15.18;86.62;102362.06;10449286;28;20403;-79
2023/05/24 02:35:45;;;;;;;0.20;0.15;;;;;;;14.41;92.09;102362.16;10459267;28;20052;-79
2023/05/24 02:40:47;;;;;;;0.00;0.00;;;;;;;14.73;90.41;102352.00;10455043;28;20041;-79
2023/05/24 02:45:48;;;;;;;0.00;0.00;;;;;;;13.74;97.69;102364.19;10451097;28;20067;-79
2023/05/24 02:50:50;;;;;;;0.00;0.00;;;;;;;14.16;94.68;102363.94;10454663;28;20049;-79
2023/05/24 02:55:51;;;;;;;0.00;0.00;;;;;;;15.41;91.00;102348.88;10441105;28;20069;-79
2023/05/24 03:00:54;;;;;;;0.00;0.00;;;;;;;15.70;90.16;102356.63;10456211;28;20048;-79
2023/05/24 03:05:56;;;;;;;0.00;0.00;;;;;;;14.88;93.47;102355.09;10434824;28;20057;-79
2023/05/24 03:10:58;;;;;;;0.38;0.10;;;;;;;14.55;96.54;102350.56;10464682;28;20037;-78
2023/05/24 03:15:59;;;;;;;0.10;0.10;;;;;;;15.10;96.33;102342.78;10436017;28;20609;-79
2023/05/24 03:21:03;;;;;;;0.75;0.73;;;;;;;15.78;89.67;102334.31;10434430;28;20049;-79
2023/05/24 03:26:07;;;;;;;0.00;0.00;;;;;;;15.50;90.21;102337.88;10449554;28;20048;-79
2023/05/24 03:31:09;;;;;;;0.00;0.00;;;;;;;14.74;95.21;102338.22;10440783;28;20136;-79
2023/05/24 03:36:11;;;;;;;0.03;0.03;;;;;;;15.73;93.96;102333.34;10466553;28;20459;-79
2023/05/24 03:41:13;;;;;;;0.05;0.05;;;;;;;15.90;93.65;102332.94;10448403;28;20052;-78
2023/05/24 03:46:16;;;;;;;0.10;0.10;;;;;;;15.88;92.85;102335.47;10448163;28;20078;-79
2023/05/24 03:51:18;;;;;;;0.00;0.00;;;;;;;15.61;91.28;102351.16;10457697;28;20048;-79
2023/05/24 03:56:22;;;;;;;0.20;0.20;;;;;;;15.26;92.70;102351.91;10433068;28;20155;-79
2023/05/24 04:01:24;;;;;;;0.15;0.10;;;;;;;15.49;90.44;102347.38;10431767;28;20059;-79
2023/05/24 04:06:35;;;;;;;0.00;0.00;;;;;;;15.27;93.48;102351.06;10459143;28;20045;-79
2023/05/24 04:11:37;;;;;;;0.00;0.00;;;;;;;15.73;92.75;102351.53;10455687;28;20144;-79
2023/05/24 04:16:40;;;;;;;0.00;0.00;;;;;;;15.41;95.07;102342.81;10447953;28;20491;-78
2023/05/24 04:21:42;;;;;;;0.13;0.10;;;;;;;15.89;90.49;102351.97;10430695;28;20045;-79
2023/05/24 04:26:44;;;;;;;0.10;0.10;;;;;;;15.29;96.49;102358.91;10447366;28;20139;-79
2023/05/24 04:31:47;;;;;;;0.28;0.20;;;;;;;15.49;98.11;102355.19;10448775;28;20051;-79
2023/05/24 04:36:51;;;;;;;0.05;0.05;;;;;;;15.68;95.50;102363.47;10434333;28;20103;-79
2023/05/24 04:41:54;;;;;;;0.00;0.00;;;;;;;16.38;95.97;102358.44;10443661;28;20490;-79
2023/05/24 04:46:56;;;;;;;0.00;0.00;;;;;;;16.54;97.04;102362.28;10445782;28;20044;-79
2023/05/24 04:51:58;;;;;;;0.10;0.10;;;;;;;17.10;95.59;102356.69;10446579;28;20044;-79
2023/05/24 04:57:00;;;;;;;0.03;0.03;;;;;;;17.40;96.10;102358.19;10425195;28;20060;-79
2023/05/24 05:02:01;;;;;;;0.00;0.00;;;;;;;17.61;95.30;102356.84;10431466;28;20052;-79
2023/05/24 05:07:04;;;;;;;0.00;0.00;;;;;;;17.38;97.12;102354.69;10445488;28;20504;-80
2023/05/24 05:12:06;;;;;;;0.00;0.00;;;;;;;18.02;96.57;102351.59;10431040;28;20483;-79
2023/05/24 05:17:07;;;;;;;2.08;0.20;;;;;;;17.63;98.04;102346.50;10446726;28;20064;-80
2023/05/24 05:22:09;;;;;;;0.00;0.00;;;;;;;17.54;98.87;102352.38;10462307;28;20094;-79
2023/05/24 05:27:11;;;;;;;0.00;0.00;;;;;;;17.96;98.97;102351.50;10463800;28;20048;-79
2023/05/24 05:32:13;;;;;;;0.25;0.25;;;;;;;17.68;100.00;102348.34;10444582;28;20074;-79
2023/05/24 05:37:14;;;;;;;0.00;0.00;;;;;;;18.04;100.00;102347.31;10446303;28;20080;-80
2023/05/24 05:42:16;;;;;;;2.15;0.60;;;;;;;18.04;100.00;102346.41;10462550;28;20049;-80
2023/05/24 05:47:18;;;;;;;1.00;0.90;;;;;;;17.75;100.00;102337.19;10444368;28;20056;-79
2023/05/24 05:52:19;;;;;;;0.52;0.52;;;;;;;18.37;100.00;102353.94;10430055;28;20041;-79
2023/05/24 05:57:23;;;;;;;0.00;0.00;;;;;;;18.02;100.00;102371.59;10438279;28;20045;-79
2023/05/24 06:02:24;;;;;;;2.75;0.30;;;;;;;17.74;100.00;102377.13;10470467;28;20098;-79
2023/05/24 06:07:26;;;;;;;0.15;0.10;;;;;;;17.65;100.00;102379.53;10435194;28;20477;-80
2023/05/24 06:12:28;;;;;;;0.00;0.00;;;;;;;17.47;100.00;102384.34;10453568;28;20377;-80
2023/05/24 06:17:29;;;;;;;0.10;0.10;;;;;;;17.88;100.00;102387.81;10440744;28;20628;-80
2023/05/24 06:22:32;;;;;;;0.03;0.03;;;;;;;17.85;100.00;102390.38;10457620;28;20045;-79
2023/05/24 06:27:34;;;;;;;0.10;0.10;;;;;;;18.94;100.00;102393.16;10453827;28;20434;-79
2023/05/24 06:32:36;;;;;;;8.68;0.52;;;;;;;18.79;100.00;102400.72;10456114;28;20049;-80
2023/05/24 06:37:37;;;;;;;0.00;0.00;;;;;;;19.72;100.00;102391.53;10453351;28;20049;-80
2023/05/24 06:42:39;;;;;;;0.10;0.10;;;;;;;19.63;97.99;102384.47;10452608;28;20045;-80
2023/05/24 06:47:41;;;;;;;0.15;0.15;;;;;;;18.31;100.00;102390.34;10432911;28;20060;-80
2023/05/24 06:52:43;;;;;;;0.10;0.10;;;;;;;18.98;100.00;102379.28;10450909;28;20069;-79
2023/05/24 06:57:44;;;;;;;0.10;0.10;;;;;;;18.73;100.00;102387.56;10440453;28;20049;-80
2023/05/24 07:02:46;;;;;;;1.48;0.40;;;;;;;19.55;100.00;102381.75;10450748;28;20040;-80
2023/05/24 07:07:47;;;;;;;0.63;0.30;;;;;;;18.75;98.31;102393.69;10450416;28;20136;-79
2023/05/24 07:12:49;;;;;;;11.20;0.65;;;;;;;19.85;98.11;102390.84;10460811;28;20534;-81
2023/05/24 07:17:51;;;;;;;0.70;0.70;;;;;;;20.14;94.03;102390.28;10450788;28;20057;-80
2023/05/24 07:22:53;;;;;;;0.20;0.20;;;;;;;19.53;93.88;102399.19;10456596;28;20405;-80
2023/05/24 07:27:54;;;;;;;0.45;0.32;;;;;;;20.17;97.04;102390.31;10449402;28;20056;-81
2023/05/24 07:32:56;;;;;;;0.30;0.30;;;;;;;20.34;93.73;102400.06;10450035;28;20049;-80
2023/05/24 07:37:58;;;;;;;5.68;0.50;;;;;;;18.71;92.13;102411.91;10446451;28;20103;-81
2023/05/24 07:42:59;;;;;;;0.13;0.13;;;;;;;19.86;90.37;102403.06;10453581;28;20470;-81
2023/05/24 07:48:01;;;;;;;1.08;0.30;;;;;;;20.15;88.57;102396.38;10454001;28;20498;-82
2023/05/24 07:53:05;;;;;;;0.00;0.00;;;;;;;20.74;87.13;102395.16;10458607;28;20677;-81
2023/05/24 07:58:06;;;;;;;1.38;0.55;;;;;;;21.11;85.73;102395.41;10433984;28;20114;-80
2023/05/24 08:03:08;;;;;;;0.20;0.10;;;;;;;21.78;86.21;102383.47;10448873;28;20046;-80
2023/05/24 08:08:10;;;;;;;0.05;0.05;;;;;;;22.42;80.10;102375.72;10447119;28;20129;-81
2023/05/24 08:13:11;;;;;;;0.50;0.10;;;;;;;21.05;82.93;102382.25;10435421;28;20041;-81
2023/05/24 08:18:13;;;;;;;0.55;0.40;;;;;;;21.07;83.42;102376.16;10437825;28;20059;-81
2023/05/24 08:23:15;;;;;;;0.52;0.30;;;;;;;20.47;84.20;102380.97;10425098;28;20049;-81
2023/05/24 08:28:17;;;;;;;0.30;0.25;;;;;;;21.22;82.62;102371.91;10444856;28;20110;-81
2023/05/24 08:33:18;;;;;;;1.95;0.45;;;;;;;20.21;81.41;102379.03;10447531;28;20041;-81
2023/05/24 08:38:20;;;;;;;0.88;0.30;;;;;;;20.85;80.00;102376.94;10428959;28;20098;-80
2023/05/24 08:43:23;;;;;;;0.25;0.25;;;;;;;21.34;78.81;102365.81;10437789;28;20045;-81
2023/05/24 08:48:27;;;;;;;0.10;0.05;;;;;;;21.08;79.48;102374.44;10441489;28;20369;-82
2023/05/24 08:53:30;;;;;;;0.00;0.00;;;;;;;22.27;79.94;102366.06;10461182;28;20063;-81
2023/05/24 08:58:32;;;;;;;0.43;0.15;;;;;;;21.91;81.54;102363.38;10445744;28;20049;-82
2023/05/24 09:03:35;;;;;;;0.85;0.30;;;;;;;21.37;78.32;102371.06;10442141;28;20063;-81
2023/05/24 09:08:39;;;;;;;0.88;0.28;;;;;;;21.29;78.71;102372.78;10427601;28;20135;-81
2023/05/24 09:13:44;;;;;;;0.00;0.00;;;;;;;20.25;80.67;102383.41;10443770;28;20045;-80
2023/05/24 09:18:46;;;;;;;0.30;0.15;;;;;;;22.56;79.65;102362.56;10444389;28;20053;-81
2023/05/24 09:23:48;;;;;;;0.20;0.10;;;;;;;20.88;77.40;102372.59;10460925;28;20048;-81
2023/05/24 09:28:53;;;;;;;0.00;0.00;;;;;;;20.99;75.74;102379.63;10465820;28;20053;-80
2023/05/24 09:33:55;;;;;;;0.03;0.00;;;;;;;21.32;74.67;102378.06;10450635;28;20143;-80
2023/05/24 09:39:08;;;;;;;1.33;0.63;;;;;;;21.65;74.47;102372.09;10439336;28;20049;-81
2023/05/24 09:44:14;;;;;;;0.05;0.05;;;;;;;23.36;70.92;102362.38;10433424;28;20463;-80
2023/05/24 09:49:15;;;;;;;1.45;0.20;;;;;;;22.08;75.08;102370.41;10453027;28;20119;-80
2023/05/24 09:54:19;;;;;;;0.95;0.10;;;;;;;22.25;73.46;102368.69;10460100;28;20048;-80
2023/05/24 09:59:21;;;;;;;0.08;0.03;;;;;;;21.17;74.26;102369.25;10435868;28;20052;-81
2023/05/24 10:04:32;;;;;;;0.08;0.08;;;;;;;21.37;76.68;102366.69;10447726;28;20041;-80
2023/05/24 10:09:35;;;;;;;0.10;0.00;;;;;;;22.00;74.83;102357.31;10460002;28;20167;-81
2023/05/24 10:14:37;;;;;;;0.10;0.10;;;;;;;21.36;71.38;102367.59;10431422;28;20041;-80
2023/05/24 10:19:40;;;;;;;1.27;1.02;;;;;;;20.82;75.83;102383.00;10439835;28;20060;-81
2023/05/24 10:24:46;;;;;;;0.10;0.10;;;;;;;23.37;72.99;102353.63;10453596;28;20052;-81
2023/05/24 10:30:14;;;;;;;1.02;0.70;;;;;;;23.05;71.54;102345.84;10433733;28;20458;-80
2023/05/24 10:35:18;;;;;;;0.32;0.10;;;;;;;22.59;70.03;102344.19;10445623;28;20233;-80
2023/05/24 10:40:24;;;;;;;0.63;0.25;;;;;;;21.72;68.54;102362.47;10443218;28;20080;-80
2023/05/24 10:45:36;;;;;;;0.10;0.10;;;;;;;22.99;68.74;102351.97;10460761;28;20045;-79
2023/05/24 10:50:42;;;;;;;0.10;0.10;;;;;;;22.84;67.03;102354.63;10447843;28;20071;-80
2023/05/24 10:55:56;;;;;;;0.13;0.10;;;;;;;21.91;73.22;102359.91;10435641;28;20076;-81
2023/05/24 11:00:58;;;;;;;0.10;0.10;;;;;;;21.65;69.63;102361.59;10452107;28;20049;-80
2023/05/24 11:06:00;;;;;;;1.40;1.17;;;;;;;21.62;70.19;102363.34;10461805;28;20389;-79
2023/05/24 11:11:09;;;;;;;0.00;0.00;;;;;;;21.93;68.79;102366.91;10468580;28;20087;-81
2023/05/24 11:16:33;;;;;;;0.80;0.40;;;;;;;21.97;69.38;102357.28;10454371;28;20055;-80
2023/05/24 11:21:36;;;;;;;0.90;0.55;;;;;;;22.05;69.66;102352.94;10450598;28;20040;-80
2023/05/24 11:26:38;;;;;;;0.95;0.32;;;;;;;22.31;68.36;102362.53;10451538;28;20121;-80
2023/05/24 11:31:49;;;;;;;0.68;0.47;;;;;;;23.82;71.55;102355.13;10467665;28;20060;-79
2023/05/24 11:36:51;;;;;;;0.20;0.10;;;;;;;22.42;68.33;102354.69;10450918;28;20056;-80
2023/05/24 11:41:53;;;;;;;0.03;0.03;;;;;;;23.26;70.94;102355.44;10451019;28;20106;-79
2023/05/24 11:47:04;;;;;;;0.60;0.38;;;;;;;22.00;68.61;102360.78;10451419;28;20403;-81
2023/05/24 11:52:06;;;;;;;0.00;0.00;;;;;;;23.73;67.82;102349.03;10442372;28;20470;-80
2023/05/24 11:57:11;;;;;;;0.30;0.10;;;;;;;23.01;72.77;102355.47;10452390;28;20080;-82
2023/05/24 12:02:13;;;;;;;0.10;0.10;;;;;;;22.33;70.13;102360.81;10452096;28;20139;-81
2023/05/24 12:07:16;;;;;;;0.35;0.35;;;;;;;21.67;68.68;102358.97;10458401;28;20064;-81
2023/05/24 12:12:20;;;;;;;0.00;0.00;;;;;;;22.43;69.56;102359.97;10449262;28;20095;-80
2023/05/24 12:17:34;;;;;;;0.28;0.17;;;;;;;22.71;70.42;102357.31;10445438;28;20442;-80
2023/05/24 12:22:36;;;;;;;0.05;0.05;;;;;;;22.68;67.22;102357.31;10474087;28;20041;-80
2023/05/24 12:27:46;;;;;;;0.68;0.55;;;;;;;23.36;66.85;102341.34;10445213;28;20073;-80
2023/05/24 12:32:48;;;;;;;0.00;0.00;;;;;;;22.71;67.70;102352.06;10446855;28;20076;-79
2023/05/24 12:37:58;;;;;;;1.08;0.30;;;;;;;24.02;65.39;102348.00;10448475;28;20060;-81
2023/05/24 12:43:01;;;;;;;;;;;;;;;23.39;69.43;102345.72;10453791;28;20045;-81
2023/05/24 12:48:03;;;;;;;0.43;0.40;;;;;;;23.98;68.50;102346.28;10431379;28;20015;-82
2023/05/24 12:53:05;;;;;;;0.08;0.08;;;;;;;25.85;68.37;102330.16;10462246;28;20557;-82
2023/05/24 12:58:08;;;;;;;0.17;0.10;;;;;;;24.29;68.84;102338.13;10466544;28;20068;-81
2023/05/24 13:03:10;;;;;;;0.10;0.10;;;;;;;24.91;64.99;102323.47;10460186;28;20507;-80
2023/05/24 13:08:12;;;;;;;2.58;0.30;;;;;;;24.37;63.77;102333.69;10447421;28;20052;-81
2023/05/24 13:13:14;;;;;;;0.10;0.10;;;;;;;24.85;61.51;102324.41;10446497;28;20044;-81
2023/05/24 13:18:15;;;;;;;0.55;0.40;;;;;;;24.59;63.99;102328.19;10453177;28;20040;-81
2023/05/24 13:23:17;;;;;;;1.27;0.45;;;;;;;23.94;60.77;102328.75;10463156;28;20045;-82
2023/05/24 13:28:21;;;;;;;1.85;0.50;;;;;;;24.61;61.26;102323.75;10442307;28;20056;-80
2023/05/24 13:33:22;;;;;;;0.57;0.25;;;;;;;25.77;60.39;102318.84;10442408;28;20050;-80
2023/05/24 13:38:24;;;;;;;0.17;0.17;;;;;;;23.52;60.89;102325.50;10440924;28;20053;-80
2023/05/24 13:43:26;;;;;;;0.32;0.08;;;;;;;25.01;61.61;102315.44;10428523;28;20507;-81
2023/05/24 13:48:27;;;;;;;0.13;0.13;;;;;;;24.37;61.88;102320.50;10447209;28;20496;-81
2023/05/24 13:53:29;;;;;;;0.77;0.68;;;;;;;23.69;62.77;102323.63;10430477;28;20049;-81
2023/05/24 13:58:31;;;;;;;0.28;0.17;;;;;;;24.01;64.27;102322.56;10428734;28;20037;-80
2023/05/24 14:03:33;;;;;;;0.20;0.20;;;;;;;24.38;63.55;102319.63;10437109;28;20059;-80
2023/05/24 14:08:34;;;;;;;0.20;0.20;;;;;;;23.64;61.78;102320.19;10429133;28;20503;-82
2023/05/24 14:13:36;;;;;;;0.35;0.15;;;;;;;23.00;65.02;102332.69;10436199;28;20048;-82
2023/05/24 14:18:41;;;;;;;0.40;0.32;;;;;;;23.34;63.53;102327.34;10456814;28;20513;-81
2023/05/24 14:23:43;;;;;;;0.68;0.68;;;;;;;25.27;59.89;102314.25;10445971;28;20053;-82
2023/05/24 14:28:45;;;;;;;0.52;0.28;;;;;;;24.64;60.92;102325.50;10450351;28;20049;-81
2023/05/24 14:33:47;;;;;;;0.63;0.20;;;;;;;23.11;61.02;102324.78;10449156;28;20049;-81
2023/05/24 14:38:49;;;;;;;0.10;0.10;;;;;;;23.07;63.61;102323.91;10437707;28;20045;-81
2023/05/24 14:43:51;;;;;;;1.13;0.93;;;;;;;22.90;64.34;102330.97;10436735;28;20119;-81
2023/05/24 14:48:53;;;;;;;0.63;0.50;;;;;;;23.03;66.63;102323.94;10451388;28;20040;-81
2023/05/24 14:53:54;;;;;;;0.03;0.03;;;;;;;23.55;63.52;102330.75;10468545;28;20060;-82
2023/05/24 14:58:57;;;;;;;0.00;0.00;;;;;;;23.50;64.16;102328.13;10436898;28;20496;-81
2023/05/24 15:03:59;;;;;;;0.73;0.22;;;;;;;23.54;63.37;102336.88;10436273;28;20037;-81
2023/05/24 15:09:01;;;;;;;0.00;0.00;;;;;;;23.98;60.43;102333.13;10438922;28;20419;-81
2023/05/24 15:14:03;;;;;;;1.08;0.85;;;;;;;23.05;61.78;102338.81;10451062;28;20047;-81
2023/05/24 15:19:04;;;;;;;1.13;0.93;;;;;;;24.05;62.45;102339.22;10450465;28;20045;-80
2023/05/24 15:24:06;;;;;;;0.08;0.08;;;;;;;22.47;62.22;102345.09;10453230;28;20068;-81
2023/05/24 15:29:08;;;;;;;0.40;0.20;;;;;;;23.47;63.04;102337.81;10461094;28;20060;-81
2023/05/24 15:34:09;;;;;;;0.00;0.00;;;;;;;23.86;65.68;102341.09;10466828;28;20479;-82
2023/05/24 15:39:11;;;;;;;0.00;0.00;;;;;;;23.23;66.17;102344.91;10443542;28;20519;-81
2023/05/24 15:44:13;;;;;;;0.05;0.05;;;;;;;24.22;67.57;102349.59;10463361;28;20056;-81
2023/05/24 15:49:14;;;;;;;0.20;0.20;;;;;;;24.22;64.70;102344.34;10467169;28;20048;-81
2023/05/24 15:54:16;;;;;;;0.30;0.10;;;;;;;24.13;67.54;102334.75;10456202;28;20055;-81
2023/05/24 15:59:17;;;;;;;5.60;0.68;;;;;;;23.13;64.84;102346.69;10446010;28;20504;-82
2023/05/24 16:04:22;;;;;;;4.55;0.82;;;;;;;23.19;65.88;102337.94;10449129;28;20556;-81
2023/05/24 16:09:23;;;;;;;0.30;0.30;;;;;;;24.20;67.18;102333.81;10428227;28;20056;-81
2023/05/24 16:14:25;;;;;;;0.10;0.10;;;;;;;23.70;65.43;102335.91;10447341;28;20049;-81
2023/05/24 16:19:26;;;;;;;0.40;0.35;;;;;;;23.05;66.31;102325.66;10431873;28;20356;-81
2023/05/24 16:24:28;;;;;;;0.50;0.28;;;;;;;23.80;64.70;102326.19;10431991;28;20495;-81
2023/05/24 16:29:30;;;;;;;0.20;0.20;;;;;;;23.74;64.75;102321.84;10451338;28;20500;-82
2023/05/24 16:34:33;;;;;;;0.55;0.20;;;;;;;23.26;64.60;102314.22;10427222;28;20076;-81
2023/05/24 16:40:01;;;;;;;0.30;0.20;;;;;;;23.14;66.81;102309.88;10462693;28;20051;-81
2023/05/24 16:45:03;;;;;;;0.40;0.20;;;;;;;23.06;66.60;102305.53;10438005;28;20048;-82
2023/05/24 16:50:08;;;;;;;0.00;0.00;;;;;;;23.49;64.22;102309.75;10446670;28;20048;-81
2023/05/24 16:55:10;;;;;;;12.43;0.88;;;;;;;23.45;65.17;102303.63;10446945;28;20041;-81
2023/05/24 17:00:14;;;;;;;0.45;0.28;;;;;;;23.01;65.15;102308.19;10430744;28;20052;-81
2023/05/24 17:05:15;;;;;;;0.10;0.00;;;;;;;22.79;65.07;102315.25;10463385;28;20053;-82
2023/05/24 17:10:17;;;;;;;0.17;0.17;;;;;;;23.90;65.19;102311.22;10448471;28;20058;-81
2023/05/24 17:15:19;;;;;;;0.45;0.30;;;;;;;22.79;65.00;102320.50;10466577;28;20036;-82
2023/05/24 17:20:21;;;;;;;0.00;0.00;;;;;;;23.20;64.57;102321.25;10454963;28;20056;-80
2023/05/24 17:25:22;;;;;;;10.40;1.20;;;;;;;23.29;64.63;102329.09;10450636;28;20496;-82
2023/05/24 17:30:26;;;;;;;0.15;0.13;;;;;;;23.26;65.22;102324.75;10429043;28;20051;-81
2023/05/24 17:35:28;;;;;;;0.05;0.05;;;;;;;24.90;65.07;102317.34;10442475;28;20067;-80
2023/05/24 17:40:30;;;;;;;0.17;0.08;;;;;;;23.81;66.58;102327.06;10447282;28;20076;-80
2023/05/24 17:45:31;;;;;;;1.70;0.40;;;;;;;23.22;68.35;102328.28;10454665;28;20041;-80
2023/05/24 17:50:33;;;;;;;0.52;0.28;;;;;;;23.29;69.35;102334.38;10445050;28;20076;-80
2023/05/24 17:55:34;;;;;;;0.45;0.30;;;;;;;23.03;68.05;102335.34;10462080;28;20188;-80
2023/05/24 18:00:36;;;;;;;0.10;0.10;;;;;;;23.02;69.24;102338.84;10473857;28;20139;-81
2023/05/24 18:05:38;;;;;;;0.00;0.00;;;;;;;22.38;69.83;102338.03;10461295;28;20041;-80
2023/05/24 18:10:39;;;;;;;1.45;0.52;;;;;;;22.84;69.37;102331.88;10462909;28;20075;-80
2023/05/24 18:15:41;;;;;;;2.90;0.10;;;;;;;22.10;71.29;102338.06;10460965;28;20508;-80
2023/05/24 18:20:43;;;;;;;0.10;0.10;;;;;;;21.76;70.98;102340.66;10459841;28;20110;-81
2023/05/24 18:25:45;;;;;;;0.00;0.00;;;;;;;22.02;71.47;102339.78;10450715;28;20049;-81
2023/05/24 18:30:49;;;;;;;0.00;0.00;;;;;;;22.19;71.23;102348.56;10452611;28;20053;-80
2023/05/24 18:35:50;;;;;;;7.03;0.30;;;;;;;21.73;71.10;102340.63;10456334;28;20041;-79
2023/05/24 18:40:52;;;;;;;1.00;0.57;;;;;;;21.82;70.71;102342.38;10417304;28;20140;-80
2023/05/24 18:45:54;;;;;;;0.25;0.10;;;;;;;21.99;70.73;102350.31;10443512;28;20395;-79
2023/05/24 18:50:55;;;;;;;0.35;0.25;;;;;;;21.61;72.77;102354.56;10431834;28;20052;-79
2023/05/24 18:55:57;;;;;;;0.25;0.20;;;;;;;22.10;72.59;102351.16;10445901;28;20033;-79
2023/05/24 19:00:59;;;;;;;0.32;0.30;;;;;;;21.81;73.58;102366.88;10456485;28;20048;-79
2023/05/24 19:06:00;;;;;;;0.10;0.10;;;;;;;21.82;73.64;102372.13;10456135;28;20048;-79
2023/05/24 19:11:02;;;;;;;0.08;0.05;;;;;;;22.80;72.80;102367.81;10437289;28;20052;-79
2023/05/24 19:16:04;;;;;;;0.52;0.17;;;;;;;22.07;72.84;102372.19;10446026;28;20041;-79
2023/05/24 19:21:06;;;;;;;1.65;0.85;;;;;;;21.56;74.78;102383.38;10439189;28;20063;-79
2023/05/24 19:26:08;;;;;;;0.30;0.05;;;;;;;22.10;73.56;102384.44;10465630;28;20072;-79
2023/05/24 19:31:09;;;;;;;0.08;0.08;;;;;;;21.11;76.24;102390.16;10435163;28;20059;-79
2023/05/24 19:36:11;;;;;;;0.00;0.00;;;;;;;20.96;76.88;102395.34;10446823;28;20050;-79
2023/05/24 19:41:13;;;;;;;1.17;0.30;;;;;;;21.24;78.21;102397.25;10434861;28;20055;-79
2023/05/24 19:46:14;;;;;;;0.00;0.00;;;;;;;21.11;78.25;102402.41;10453386;28;20040;-79
2023/05/24 19:51:16;;;;;;;0.00;0.00;;;;;;;21.17;77.58;102411.19;10451282;28;20083;-79
2023/05/24 19:56:19;;;;;;;0.00;0.00;;;;;;;20.90;77.87;102417.13;10469446;28;20041;-79
2023/05/24 20:01:21;;;;;;;0.63;0.50;;;;;;;20.23;80.61;102416.53;10435984;28;20059;-79
2023/05/24 20:06:22;;;;;;;0.00;0.00;;;;;;;20.51;80.53;102419.41;10459346;28;20446;-79
2023/05/24 20:11:25;;;;;;;0.00;0.00;;;;;;;21.07;77.35;102432.94;10461811;28;20389;-79
2023/05/24 20:16:27;;;;;;;0.00;0.00;;;;;;;20.35;80.56;102433.22;10454902;28;20047;-79
2023/05/24 20:21:29;;;;;;;0.03;0.03;;;;;;;20.64;78.64;102432.59;10429722;28;20094;-79
2023/05/24 20:26:33;;;;;;;0.15;0.08;;;;;;;21.21;75.42;102435.66;10478084;28;20273;-79
2023/05/24 20:31:36;;;;;;;0.00;0.00;;;;;;;21.62;74.93;102442.00;10434816;28;20051;-79
2023/05/24 20:36:38;;;;;;;0.32;0.25;;;;;;;21.91;72.44;102442.09;10462681;28;20053;-79
2023/05/24 20:41:41;;;;;;;0.00;0.00;;;;;;;21.83;70.79;102442.09;10466454;28;20044;-79
2023/05/24 20:46:43;;;;;;;0.00;0.00;;;;;;;21.44;74.42;102456.75;10452142;28;20051;-79
2023/05/24 20:51:45;;;;;;;0.20;0.20;;;;;;;21.37;75.27;102460.22;10458042;28;20049;-79
2023/05/24 20:56:46;;;;;;;0.00;0.00;;;;;;;21.44;74.24;102459.38;10438332;28;20045;-79
2023/05/24 21:01:48;;;;;;;0.25;0.20;;;;;;;21.16;75.70;102464.47;10440468;28;20060;-79
2023/05/24 21:06:50;;;;;;;0.70;0.70;;;;;;;21.09;74.75;102465.28;10435415;28;20080;-79
2023/05/24 21:11:51;;;;;;;0.30;0.10;;;;;;;20.61;76.98;102472.72;10451135;28;20045;-79
2023/05/24 21:16:53;;;;;;;0.03;0.03;;;;;;;19.42;80.73;102473.94;10468981;28;20110;-79
2023/05/24 21:21:55;;;;;;;4.53;0.57;;;;;;;19.64;81.71;102480.34;10450970;28;20041;-79
2023/05/24 21:26:57;;;;;;;0.00;0.00;;;;;;;19.64;83.01;102481.22;10435391;28;20045;-79
2023/05/24 21:31:58;;;;;;;0.20;0.10;;;;;;;20.14;79.65;102484.47;10443230;28;20049;-79
2023/05/24 21:37:00;;;;;;;0.00;0.00;;;;;;;20.31;77.41;102484.66;10446400;28;20049;-79
2023/05/24 21:42:02;;;;;;;0.00;0.00;;;;;;;20.65;76.28;102484.13;10429513;28;20048;-79
2023/05/24 21:47:04;;;;;;;0.00;0.00;;;;;;;19.33;83.07;102501.69;10447127;28;20492;-79
2023/05/24 21:52:05;;;;;;;0.00;0.00;;;;;;;19.14;84.30;102505.75;10438575;28;20396;-79
2023/05/24 21:57:07;;;;;;;0.00;0.00;;;;;;;18.99;84.61;102511.63;10440448;28;20064;-78
2023/05/24 22:02:09;;;;;;;0.00;0.00;;;;;;;20.07;80.22;102504.44;10445250;28;20388;-78
2023/05/24 22:07:11;;;;;;;0.00;0.00;;;;;;;20.12;78.68;102504.50;10463417;28;20117;-79
2023/05/24 22:12:12;;;;;;;0.00;0.00;;;;;;;18.29;89.93;102517.28;10446165;28;20033;-79
2023/05/24 22:17:15;;;;;;;0.10;0.10;;;;;;;18.08;92.92;102522.97;10444958;28;20579;-79
2023/05/24 22:22:18;;;;;;;0.00;0.00;;;;;;;18.27;91.42;102534.66;10426569;28;20051;-79
2023/05/24 22:27:20;;;;;;;0.57;0.30;;;;;;;17.88;93.68;102536.41;10427466;28;20126;-79
2023/05/24 22:32:21;;;;;;;0.00;0.00;;;;;;;17.56;97.28;102548.72;10441612;28;20056;-79
2023/05/24 22:37:23;;;;;;;1.08;0.50;;;;;;;17.68;97.28;102541.22;10450259;28;20037;-79
2023/05/24 22:42:25;;;;;;;0.22;0.22;;;;;;;17.60;98.51;102553.19;10439530;28;20131;-79
2023/05/24 22:47:27;;;;;;;0.55;0.55;;;;;;;17.66;97.63;102550.72;10451743;28;20499;-79
2023/05/24 22:52:32;;;;;;;0.32;0.10;;;;;;;17.99;95.06;102541.88;10467027;28;20400;-79
2023/05/24 22:57:34;;;;;;;0.47;0.20;;;;;;;17.53;98.85;102548.69;10435315;28;20064;-79
2023/05/24 23:02:36;;;;;;;0.10;0.10;;;;;;;17.53;98.74;102548.69;10452085;28;20509;-79
2023/05/24 23:07:38;;;;;;;0.10;0.10;;;;;;;17.48;98.99;102560.69;10451048;28;20098;-79
2023/05/24 23:12:43;;;;;;;0.20;0.20;;;;;;;17.56;99.46;102564.38;10450716;28;20057;-79